Saturday, May 26, 2018, 8:08 AM EDT
Back to Local

KFZY, Fulton Oswego County Airport

Location: Fulton, NY, United States Lat: 43.35
Local Time: 8:08 AM EDT (12:08 GMT) Lon: -76.383
Time Zone: US/Eastern Elev: 475 ft

Show me the last for .
Show Decoded

2018-05-26 07:54 METAR KFZY 261154Z AUTO 27003KT 10SM CLR 21/13 A2979 RMK AO2 SLP086 T02060133
                 10206 20178 53012 =
2018-05-26 06:54 METAR KFZY 261054Z AUTO 21003KT 10SM CLR 19/13 A2977 RMK AO2 SLP079 T01940128 =
2018-05-26 05:54 METAR KFZY 260954Z AUTO 22004KT 10SM CLR 18/11 A2976 RMK AO2 SLP074 T01830111 =
2018-05-26 04:54 METAR KFZY 260854Z AUTO 21006KT 10SM CLR 18/11 A2976 RMK AO2 SLP073 T01830111
                 55003 =
2018-05-26 03:54 METAR KFZY 260754Z AUTO 20004KT 10SM CLR 18/11 A2975 RMK AO2 SLP072 T01830111 =
2018-05-26 02:54 METAR KFZY 260654Z AUTO 20005KT 10SM CLR 19/11 A2976 RMK AO2 SLP074 T01890111 =
2018-05-26 01:54 METAR KFZY 260554Z AUTO 20004KT 10SM CLR 19/11 A2977 RMK AO2 SLP077 60000
                 T01890111 10233 20183 58005 =
2018-05-26 00:54 METAR KFZY 260454Z AUTO 20005KT 10SM CLR 20/11 A2977 RMK AO2 SLP079 T02000106
                 402830106 =
2018-05-25 23:54 METAR KFZY 260354Z AUTO 22004KT 10SM BKN100 22/10 A2978 RMK AO2 SLP081 T02170100
                 =
2018-05-25 22:54 METAR KFZY 260254Z AUTO 22005KT 10SM FEW090 SCT120 22/09 A2978 RMK AO2 SLP082
                 60000 T02220094 58002 =
2018-05-25 21:54 METAR KFZY 260154Z AUTO 22005KT 10SM CLR 22/09 A2979 RMK AO2 SLP085 T02170094 =
2018-05-25 20:54 METAR KFZY 260054Z AUTO 00000KT 10SM FEW095 SCT110 23/08 A2979 RMK AO2 RAE05
                 SLP085 P0000 T02280083 =
2018-05-25 19:54 METAR KFZY 252354Z AUTO 30004KT 10SM -RA CLR 23/11 A2979 RMK AO2 RAB52 SLP086
                 P0000 60000 T02330106 10283 20233 58008 =
2018-05-25 18:54 METAR KFZY 252254Z AUTO 27007KT 10SM CLR 26/10 A2980 RMK AO2 SLP088 T02560100 =
2018-05-25 17:54 METAR KFZY 252154Z AUTO 28007KT 10SM CLR 27/11 A2981 RMK AO2 SLP092 T02720111 =
2018-05-25 16:54 METAR KFZY 252054Z AUTO 28009KT 10SM CLR 27/12 A2981 RMK AO2 SLP092 T02720117
                 56021 =
2018-05-25 15:54 METAR KFZY 251954Z AUTO 29010KT 10SM CLR 28/12 A2983 RMK AO2 SLP101 T02830122 =
2018-05-25 14:54 METAR KFZY 251854Z AUTO 27009G17KT 10SM CLR 28/12 A2985 RMK AO2 SLP107 T02830122
                 =
2018-05-25 13:54 METAR KFZY 251754Z AUTO 28014G20KT 10SM CLR 28/11 A2988 RMK AO2 SLP114 T02830111
                 10283 20189 56020 =
2018-05-25 12:54 METAR KFZY 251654Z AUTO 27013G20KT 10SM CLR 27/11 A2989 RMK AO2 SLP121 T02720106
                 =
2018-05-25 11:54 METAR KFZY 251554Z AUTO 27007G20KT 10SM CLR 27/11 A2992 RMK AO2 SLP129 T02670111
                 =
2018-05-25 10:54 METAR KFZY 251454Z AUTO 25012G16KT 10SM CLR 26/12 A2994 RMK AO2 SLP136 T02560117
                 58015 =
2018-05-25 09:54 METAR KFZY 251354Z AUTO 23007KT 10SM CLR 24/11 A2996 RMK AO2 SLP142 T02440111 =
2018-05-25 08:54 METAR KFZY 251254Z AUTO 24009KT 10SM CLR 22/10 A2997 RMK AO2 SLP148 T02220100 =

Support USWX by starting your Amazon purchase here.